Ercan, Cyprus

5:21 PM EEST on August 29, 2016 (GMT +0300)
Ercan | | Change Station

Elev 299 ft 35.15 °N, 33.50 °E | Updated 31 minutes ago

Scattered Clouds
Scattered Clouds
91 °F
Feels Like 94 °F
N
12
Wind Variable Wind from SW

Today
High -- | Low -- °F
--% Chance of Precip.
Yesterday
High -- | Low -- °F
Precip. -- in
Pressure 29.80 in
Visibility 6.2 miles
Clouds Scattered Clouds 3000 ft
Heat Index 94 °F
Dew Point 66 °F
Humidity 43%
Rainfall 0.00 in
Snow Depth Not available.
6:16 AM 7:16 PM
Waning Crescent, 8% visible
METAR LCEN 291350Z 22010KT 9999 SCT030 33/19 Q1009 NOSIG RMK RWY11 29013KT
Pressure 29.80 in
Visibility 6.2 miles
Clouds Scattered Clouds 3000 ft
Heat Index 94 °F
Dew Point 66 °F
Humidity 43%
Rainfall 0.00 in
Snow Depth Not available.
6:16 AM 7:16 PM
Waning Crescent, 8% visible
METAR LCEN 291350Z 22010KT 9999 SCT030 33/19 Q1009 NOSIG RMK RWY11 29013KT

10-Day Weather Forecast

×

Almanac

Astronomy

Aug. 29, 2016 Rise Set
Actual Time
Civil Twilight
Nautical Twilight
Astronomical Twilight
Moon
Length of Visible Light
Length of Day
Tomorrow will be .
, % of the Moon is Illuminated

Today's Extremes

Country Highs Country Lows

Community

WunderPhotos

Upload Photos

1,935,826 photos uploaded!

WunderBlog® & News

Nearby

Air Quality

  Air Quality AQ Index Pollutant
Not available.

Snow Depth

Station Depth Elevation

Earthquake Activity

City Distance Mag. Time & Date
Minimum magnitude displayed is 2.5.

Coastal Water Temperatures

Place Temperature

Stations

Nearby Weather Stations

Station Location Temp. Windchill Dew Point Humidity Wind Precip. Elev Updated Type